Tansboro, New Jersey
Current Conditions -  °F | °C
As of 3:54 AM on Saturday 01 Nov 2014 (Local Time) from KVAY Reporting Station
Moderate Rain Moderate Rain  
Wind Chill: 43°   Ceiling: 1100
Heat Index: 48°   Visibility: 4mi
Dew Point: 44°   Wind: 12mph
Humidity: 86%   Direction: 10°N
Pressure: 29.76"   Gusts: NA
Location:  39.7587°N, 74.9349°W
Report Text: KVAY 010754Z AUTO 01010KT 4SM RA BR OVC011 09/07 A2976 RMK AO2 RAB12 SLP078 P0004 T00890067
Loading
Personal Weather Stations






























Interactive Weather Map
Tropical Storm Tracking
New forecast layout! Learn more

10-Day Weather Forecast

Advertisements
Track Severe Weather on mobile